sensor_id;sensor_type;location;lat;lon;timestamp;temperature;humidity
21592;DHT22;10958;50.892;3.992;2023-02-01T00:01:41;7.60;99.90
21592;DHT22;10958;50.892;3.992;2023-02-01T00:04:08;7.60;99.90
21592;DHT22;10958;50.892;3.992;2023-02-01T00:06:37;7.60;99.90
21592;DHT22;10958;50.892;3.992;2023-02-01T00:09:03;7.70;99.90
21592;DHT22;10958;50.892;3.992;2023-02-01T00:11:28;7.70;99.90
21592;DHT22;10958;50.892;3.992;2023-02-01T00:13:54;7.80;99.90
21592;DHT22;10958;50.892;3.992;2023-02-01T00:16:26;7.80;99.90
21592;DHT22;10958;50.892;3.992;2023-02-01T00:19:03;8.00;99.90
21592;DHT22;10958;50.892;3.992;2023-02-01T00:21:29;8.00;99.90
21592;DHT22;10958;50.892;3.992;2023-02-01T00:23:56;8.00;99.90
21592;DHT22;10958;50.892;3.992;2023-02-01T00:28:56;7.80;99.90
21592;DHT22;10958;50.892;3.992;2023-02-01T00:31:24;7.80;99.90
21592;DHT22;10958;50.892;3.992;2023-02-01T00:33:52;7.80;99.90
21592;DHT22;10958;50.892;3.992;2023-02-01T00:36:18;7.70;99.90
21592;DHT22;10958;50.892;3.992;2023-02-01T00:38:44;7.70;99.90
21592;DHT22;10958;50.892;3.992;2023-02-01T00:41:12;7.70;99.90
21592;DHT22;10958;50.892;3.992;2023-02-01T00:43:39;7.60;99.90
21592;DHT22;10958;50.892;3.992;2023-02-01T00:46:05;7.50;99.90
21592;DHT22;10958;50.892;3.992;2023-02-01T00:48:33;7.50;99.90
21592;DHT22;10958;50.892;3.992;2023-02-01T00:51:04;7.60;99.90
21592;DHT22;10958;50.892;3.992;2023-02-01T00:53:30;7.50;99.90
21592;DHT22;10958;50.892;3.992;2023-02-01T00:55:55;7.50;99.90
21592;DHT22;10958;50.892;3.992;2023-02-01T00:58:24;7.50;99.90
21592;DHT22;10958;50.892;3.992;2023-02-01T01:01:17;7.40;99.90
21592;DHT22;10958;50.892;3.992;2023-02-01T01:03:47;7.40;99.90
21592;DHT22;10958;50.892;3.992;2023-02-01T01:06:16;7.40;99.90
21592;DHT22;10958;50.892;3.992;2023-02-01T01:08:42;7.40;99.90
21592;DHT22;10958;50.892;3.992;2023-02-01T01:11:15;7.30;99.90
21592;DHT22;10958;50.892;3.992;2023-02-01T01:13:41;7.20;99.90
21592;DHT22;10958;50.892;3.992;2023-02-01T01:16:08;7.20;99.90
21592;DHT22;10958;50.892;3.992;2023-02-01T01:18:35;7.20;99.90
21592;DHT22;10958;50.892;3.992;2023-02-01T01:21:03;7.10;99.90
21592;DHT22;10958;50.892;3.992;2023-02-01T01:23:33;7.20;99.90
21592;DHT22;10958;50.892;3.992;2023-02-01T01:26:00;7.20;99.90
21592;DHT22;10958;50.892;3.992;2023-02-01T01:28:29;7.10;99.90
21592;DHT22;10958;50.892;3.992;2023-02-01T01:31:09;7.00;99.90
21592;DHT22;10958;50.892;3.992;2023-02-01T01:33:38;7.10;99.90
21592;DHT22;10958;50.892;3.992;2023-02-01T01:36:06;6.90;99.90
21592;DHT22;10958;50.892;3.992;2023-02-01T01:38:34;7.00;99.90
21592;DHT22;10958;50.892;3.992;2023-02-01T01:41:00;6.90;99.90
21592;DHT22;10958;50.892;3.992;2023-02-01T01:46:29;6.90;99.90
21592;DHT22;10958;50.892;3.992;2023-02-01T01:49:11;6.70;99.90
21592;DHT22;10958;50.892;3.992;2023-02-01T01:51:46;6.70;99.90
21592;DHT22;10958;50.892;3.992;2023-02-01T01:56:50;6.70;99.90
21592;DHT22;10958;50.892;3.992;2023-02-01T01:59:25;6.70;99.90
21592;DHT22;10958;50.892;3.992;2023-02-01T02:02:02;6.70;99.90
21592;DHT22;10958;50.892;3.992;2023-02-01T02:04:53;6.70;99.90
21592;DHT22;10958;50.892;3.992;2023-02-01T02:07:33;6.70;99.90
21592;DHT22;10958;50.892;3.992;2023-02-01T02:10:05;6.70;99.90
21592;DHT22;10958;50.892;3.992;2023-02-01T02:12:34;6.90;99.90
21592;DHT22;10958;50.892;3.992;2023-02-01T02:15:05;6.80;99.90
21592;DHT22;10958;50.892;3.992;2023-02-01T02:18:00;7.00;99.90
21592;DHT22;10958;50.892;3.992;2023-02-01T02:42:32;6.70;99.90
21592;DHT22;10958;50.892;3.992;2023-02-01T02:45:28;6.60;99.90
21592;DHT22;10958;50.892;3.992;2023-02-01T02:48:36;6.60;99.90
21592;DHT22;10958;50.892;3.992;2023-02-01T02:53:57;6.60;99.90
21592;DHT22;10958;50.892;3.992;2023-02-01T02:56:44;6.60;99.90
21592;DHT22;10958;50.892;3.992;2023-02-01T02:59:30;6.60;99.90
21592;DHT22;10958;50.892;3.992;2023-02-01T03:02:18;6.60;99.90
21592;DHT22;10958;50.892;3.992;2023-02-01T03:05:02;6.50;99.90
21592;DHT22;10958;50.892;3.992;2023-02-01T03:12:56;6.50;99.90
21592;DHT22;10958;50.892;3.992;2023-02-01T03:16:04;6.60;99.90
21592;DHT22;10958;50.892;3.992;2023-02-01T03:21:17;6.50;99.90
21592;DHT22;10958;50.892;3.992;2023-02-01T03:23:58;6.40;99.90
21592;DHT22;10958;50.892;3.992;2023-02-01T03:26:30;6.40;99.90
21592;DHT22;10958;50.892;3.992;2023-02-01T03:29:07;6.50;99.90
21592;DHT22;10958;50.892;3.992;2023-02-01T03:31:39;6.40;99.90
21592;DHT22;10958;50.892;3.992;2023-02-01T03:34:06;6.30;99.90
21592;DHT22;10958;50.892;3.992;2023-02-01T03:48:02;6.20;99.90
21592;DHT22;10958;50.892;3.992;2023-02-01T03:50:31;6.20;99.90
21592;DHT22;10958;50.892;3.992;2023-02-01T03:53:05;6.10;99.90
21592;DHT22;10958;50.892;3.992;2023-02-01T03:55:32;6.20;99.90
21592;DHT22;10958;50.892;3.992;2023-02-01T03:58:14;6.30;99.90
21592;DHT22;10958;50.892;3.992;2023-02-01T04:00:44;6.30;99.90
21592;DHT22;10958;50.892;3.992;2023-02-01T04:03:13;6.30;99.90
21592;DHT22;10958;50.892;3.992;2023-02-01T04:05:39;6.20;99.90
21592;DHT22;10958;50.892;3.992;2023-02-01T04:08:10;6.10;99.90
21592;DHT22;10958;50.892;3.992;2023-02-01T04:10:42;6.00;99.90
21592;DHT22;10958;50.892;3.992;2023-02-01T04:13:16;6.10;99.90
21592;DHT22;10958;50.892;3.992;2023-02-01T04:15:50;6.00;99.90
21592;DHT22;10958;50.892;3.992;2023-02-01T04:18:18;6.00;99.90
21592;DHT22;10958;50.892;3.992;2023-02-01T04:20:44;5.90;99.90
21592;DHT22;10958;50.892;3.992;2023-02-01T04:23:10;5.90;99.90
21592;DHT22;10958;50.892;3.992;2023-02-01T04:25:44;5.90;99.90
21592;DHT22;10958;50.892;3.992;2023-02-01T04:28:23;5.90;99.90
21592;DHT22;10958;50.892;3.992;2023-02-01T04:30:55;5.90;99.90
21592;DHT22;10958;50.892;3.992;2023-02-01T04:33:21;6.00;99.90
21592;DHT22;10958;50.892;3.992;2023-02-01T04:35:47;6.00;99.90
21592;DHT22;10958;50.892;3.992;2023-02-01T04:38:13;5.90;99.90
21592;DHT22;10958;50.892;3.992;2023-02-01T04:40:39;5.80;99.90
21592;DHT22;10958;50.892;3.992;2023-02-01T04:43:05;5.70;99.90
21592;DHT22;10958;50.892;3.992;2023-02-01T04:45:48;5.70;99.90
21592;DHT22;10958;50.892;3.992;2023-02-01T04:48:18;5.80;99.90
21592;DHT22;10958;50.892;3.992;2023-02-01T04:50:45;5.80;99.90
21592;DHT22;10958;50.892;3.992;2023-02-01T04:53:16;5.60;99.90
21592;DHT22;10958;50.892;3.992;2023-02-01T04:55:44;5.60;99.90
21592;DHT22;10958;50.892;3.992;2023-02-01T04:58:13;5.60;99.90
21592;DHT22;10958;50.892;3.992;2023-02-01T05:00:39;5.60;99.90
21592;DHT22;10958;50.892;3.992;2023-02-01T05:03:05;5.60;99.90
21592;DHT22;10958;50.892;3.992;2023-02-01T05:05:30;5.60;99.90
21592;DHT22;10958;50.892;3.992;2023-02-01T05:08:00;5.50;99.90
21592;DHT22;10958;50.892;3.992;2023-02-01T05:10:26;5.50;99.90
21592;DHT22;10958;50.892;3.992;2023-02-01T05:12:52;5.40;99.90
21592;DHT22;10958;50.892;3.992;2023-02-01T05:15:36;5.30;99.90
21592;DHT22;10958;50.892;3.992;2023-02-01T05:18:02;5.30;99.90
21592;DHT22;10958;50.892;3.992;2023-02-01T05:20:28;5.20;99.90
21592;DHT22;10958;50.892;3.992;2023-02-01T05:22:56;5.30;99.90
21592;DHT22;10958;50.892;3.992;2023-02-01T05:25:22;5.30;99.90
21592;DHT22;10958;50.892;3.992;2023-02-01T05:27:48;5.30;99.90
21592;DHT22;10958;50.892;3.992;2023-02-01T05:30:14;5.20;99.90
21592;DHT22;10958;50.892;3.992;2023-02-01T05:32:40;5.20;99.90
21592;DHT22;10958;50.892;3.992;2023-02-01T05:35:06;5.10;99.90
21592;DHT22;10958;50.892;3.992;2023-02-01T05:37:34;5.10;99.90
21592;DHT22;10958;50.892;3.992;2023-02-01T05:40:00;5.10;99.90
21592;DHT22;10958;50.892;3.992;2023-02-01T05:42:26;5.20;99.90
21592;DHT22;10958;50.892;3.992;2023-02-01T05:44:55;5.20;99.90
21592;DHT22;10958;50.892;3.992;2023-02-01T05:47:20;5.20;99.90
21592;DHT22;10958;50.892;3.992;2023-02-01T05:49:48;5.20;99.90
21592;DHT22;10958;50.892;3.992;2023-02-01T05:52:13;5.00;99.90
21592;DHT22;10958;50.892;3.992;2023-02-01T05:54:45;5.00;99.90
21592;DHT22;10958;50.892;3.992;2023-02-01T05:57:11;5.00;99.90
21592;DHT22;10958;50.892;3.992;2023-02-01T05:59:38;5.00;99.90
21592;DHT22;10958;50.892;3.992;2023-02-01T06:02:07;5.10;99.90
21592;DHT22;10958;50.892;3.992;2023-02-01T06:04:34;5.00;99.90
21592;DHT22;10958;50.892;3.992;2023-02-01T06:07:02;5.10;99.90
21592;DHT22;10958;50.892;3.992;2023-02-01T06:09:28;5.00;99.90
21592;DHT22;10958;50.892;3.992;2023-02-01T06:11:54;5.00;99.90
21592;DHT22;10958;50.892;3.992;2023-02-01T06:14:20;5.10;99.90
21592;DHT22;10958;50.892;3.992;2023-02-01T06:16:46;5.00;99.90
21592;DHT22;10958;50.892;3.992;2023-02-01T06:19:13;4.90;99.90
21592;DHT22;10958;50.892;3.992;2023-02-01T06:21:39;5.00;99.90
21592;DHT22;10958;50.892;3.992;2023-02-01T06:24:08;4.90;99.90
21592;DHT22;10958;50.892;3.992;2023-02-01T06:26:33;4.90;99.90
21592;DHT22;10958;50.892;3.992;2023-02-01T06:28:59;4.90;99.90
21592;DHT22;10958;50.892;3.992;2023-02-01T06:31:25;5.00;99.90
21592;DHT22;10958;50.892;3.992;2023-02-01T06:33:53;5.00;99.90
21592;DHT22;10958;50.892;3.992;2023-02-01T06:36:19;5.00;99.90
21592;DHT22;10958;50.892;3.992;2023-02-01T06:38:47;5.00;99.90
21592;DHT22;10958;50.892;3.992;2023-02-01T06:41:14;5.00;99.90
21592;DHT22;10958;50.892;3.992;2023-02-01T06:43:40;5.00;99.90
21592;DHT22;10958;50.892;3.992;2023-02-01T06:46:11;5.00;99.90
21592;DHT22;10958;50.892;3.992;2023-02-01T06:48:37;5.10;99.90
21592;DHT22;10958;50.892;3.992;2023-02-01T06:51:03;5.10;99.90
21592;DHT22;10958;50.892;3.992;2023-02-01T06:53:29;5.20;99.90
21592;DHT22;10958;50.892;3.992;2023-02-01T06:56:05;5.20;99.90
21592;DHT22;10958;50.892;3.992;2023-02-01T06:58:32;5.10;99.90
21592;DHT22;10958;50.892;3.992;2023-02-01T07:01:04;5.20;99.90
21592;DHT22;10958;50.892;3.992;2023-02-01T07:03:31;5.20;99.90
21592;DHT22;10958;50.892;3.992;2023-02-01T07:05:57;5.10;99.90
21592;DHT22;10958;50.892;3.992;2023-02-01T07:08:29;5.20;99.90
21592;DHT22;10958;50.892;3.992;2023-02-01T07:10:55;5.20;99.90
21592;DHT22;10958;50.892;3.992;2023-02-01T07:13:20;5.20;99.90
21592;DHT22;10958;50.892;3.992;2023-02-01T07:15:46;5.20;99.90
21592;DHT22;10958;50.892;3.992;2023-02-01T07:18:16;5.20;99.90
21592;DHT22;10958;50.892;3.992;2023-02-01T07:20:42;5.30;99.90
21592;DHT22;10958;50.892;3.992;2023-02-01T07:23:13;5.20;99.90
21592;DHT22;10958;50.892;3.992;2023-02-01T07:25:38;5.30;99.90
21592;DHT22;10958;50.892;3.992;2023-02-01T07:28:04;5.20;99.90
21592;DHT22;10958;50.892;3.992;2023-02-01T07:30:30;5.20;99.90
21592;DHT22;10958;50.892;3.992;2023-02-01T07:32:59;5.30;99.90
21592;DHT22;10958;50.892;3.992;2023-02-01T07:35:27;5.30;99.90
21592;DHT22;10958;50.892;3.992;2023-02-01T07:37:53;5.30;99.90
21592;DHT22;10958;50.892;3.992;2023-02-01T07:40:21;5.30;99.90
21592;DHT22;10958;50.892;3.992;2023-02-01T07:42:54;5.40;99.90
21592;DHT22;10958;50.892;3.992;2023-02-01T07:45:21;5.30;99.90
21592;DHT22;10958;50.892;3.992;2023-02-01T07:47:50;5.30;99.90
21592;DHT22;10958;50.892;3.992;2023-02-01T07:50:16;5.40;99.90
21592;DHT22;10958;50.892;3.992;2023-02-01T07:52:42;5.50;99.90
21592;DHT22;10958;50.892;3.992;2023-02-01T07:55:08;5.50;99.90
21592;DHT22;10958;50.892;3.992;2023-02-01T07:57:34;5.50;99.90
21592;DHT22;10958;50.892;3.992;2023-02-01T07:59:59;5.50;99.90
21592;DHT22;10958;50.892;3.992;2023-02-01T08:02:43;5.60;99.90
21592;DHT22;10958;50.892;3.992;2023-02-01T08:05:10;5.80;99.90
21592;DHT22;10958;50.892;3.992;2023-02-01T08:07:35;5.80;99.90
21592;DHT22;10958;50.892;3.992;2023-02-01T08:10:01;6.00;99.90
21592;DHT22;10958;50.892;3.992;2023-02-01T08:12:27;6.00;99.90
21592;DHT22;10958;50.892;3.992;2023-02-01T08:14:53;6.00;99.90
21592;DHT22;10958;50.892;3.992;2023-02-01T08:17:20;6.10;99.90
21592;DHT22;10958;50.892;3.992;2023-02-01T08:19:50;6.20;99.90
21592;DHT22;10958;50.892;3.992;2023-02-01T08:22:16;6.30;99.90
21592;DHT22;10958;50.892;3.992;2023-02-01T08:24:42;6.20;99.90
21592;DHT22;10958;50.892;3.992;2023-02-01T08:27:07;6.20;99.90
21592;DHT22;10958;50.892;3.992;2023-02-01T08:29:33;6.20;99.90
21592;DHT22;10958;50.892;3.992;2023-02-01T08:31:59;6.20;99.90
21592;DHT22;10958;50.892;3.992;2023-02-01T08:34:24;6.20;99.90
21592;DHT22;10958;50.892;3.992;2023-02-01T08:36:53;6.20;99.90
21592;DHT22;10958;50.892;3.992;2023-02-01T08:39:25;6.30;99.90
21592;DHT22;10958;50.892;3.992;2023-02-01T08:41:51;6.30;99.90
21592;DHT22;10958;50.892;3.992;2023-02-01T08:44:36;6.30;99.90
21592;DHT22;10958;50.892;3.992;2023-02-01T08:49:50;6.40;99.90
21592;DHT22;10958;50.892;3.992;2023-02-01T08:52:26;6.20;99.90
21592;DHT22;10958;50.892;3.992;2023-02-01T08:55:00;6.30;99.90
21592;DHT22;10958;50.892;3.992;2023-02-01T08:57:27;6.40;99.90
21592;DHT22;10958;50.892;3.992;2023-02-01T08:59:54;6.60;99.90
21592;DHT22;10958;50.892;3.992;2023-02-01T09:02:19;6.50;99.90
21592;DHT22;10958;50.892;3.992;2023-02-01T09:04:45;6.60;99.90
21592;DHT22;10958;50.892;3.992;2023-02-01T09:07:13;6.80;99.90
21592;DHT22;10958;50.892;3.992;2023-02-01T09:09:39;6.90;99.90
21592;DHT22;10958;50.892;3.992;2023-02-01T09:12:05;7.00;99.90
21592;DHT22;10958;50.892;3.992;2023-02-01T09:14:31;7.10;99.90
21592;DHT22;10958;50.892;3.992;2023-02-01T09:16:57;7.40;99.90
21592;DHT22;10958;50.892;3.992;2023-02-01T09:19:23;7.70;99.90
21592;DHT22;10958;50.892;3.992;2023-02-01T09:21:49;7.90;99.90
21592;DHT22;10958;50.892;3.992;2023-02-01T09:24:14;8.40;99.90
21592;DHT22;10958;50.892;3.992;2023-02-01T09:26:40;8.40;99.90
21592;DHT22;10958;50.892;3.992;2023-02-01T09:29:11;8.50;99.90
21592;DHT22;10958;50.892;3.992;2023-02-01T09:31:37;8.50;99.90
21592;DHT22;10958;50.892;3.992;2023-02-01T09:34:04;8.60;99.90
21592;DHT22;10958;50.892;3.992;2023-02-01T09:36:30;8.70;99.90
21592;DHT22;10958;50.892;3.992;2023-02-01T09:38:56;8.70;99.90
21592;DHT22;10958;50.892;3.992;2023-02-01T09:41:27;8.90;99.90
21592;DHT22;10958;50.892;3.992;2023-02-01T09:46:32;9.30;99.90
21592;DHT22;10958;50.892;3.992;2023-02-01T09:49:03;9.50;99.90
21592;DHT22;10958;50.892;3.992;2023-02-01T09:51:34;9.20;99.90
21592;DHT22;10958;50.892;3.992;2023-02-01T09:54:56;9.30;99.90
21592;DHT22;10958;50.892;3.992;2023-02-01T09:57:28;9.30;99.90
21592;DHT22;10958;50.892;3.992;2023-02-01T10:00:04;9.40;99.90
21592;DHT22;10958;50.892;3.992;2023-02-01T10:02:35;9.40;99.90
21592;DHT22;10958;50.892;3.992;2023-02-01T10:05:04;9.70;99.90
21592;DHT22;10958;50.892;3.992;2023-02-01T10:08:10;9.70;99.90
21592;DHT22;10958;50.892;3.992;2023-02-01T10:10:47;9.30;99.90
21592;DHT22;10958;50.892;3.992;2023-02-01T10:16:27;9.40;99.90
21592;DHT22;10958;50.892;3.992;2023-02-01T10:19:14;9.40;99.90
21592;DHT22;10958;50.892;3.992;2023-02-01T10:21:49;9.40;99.90
21592;DHT22;10958;50.892;3.992;2023-02-01T10:27:17;9.10;99.90
21592;DHT22;10958;50.892;3.992;2023-02-01T10:29:49;9.10;99.90
21592;DHT22;10958;50.892;3.992;2023-02-01T10:32:21;8.90;99.90
21592;DHT22;10958;50.892;3.992;2023-02-01T10:34:55;9.00;99.90
21592;DHT22;10958;50.892;3.992;2023-02-01T10:37:28;9.00;99.90
21592;DHT22;10958;50.892;3.992;2023-02-01T10:39:59;9.00;99.90
21592;DHT22;10958;50.892;3.992;2023-02-01T10:42:27;8.80;99.90
21592;DHT22;10958;50.892;3.992;2023-02-01T10:44:57;9.00;99.90
21592;DHT22;10958;50.892;3.992;2023-02-01T10:47:23;8.90;99.90
21592;DHT22;10958;50.892;3.992;2023-02-01T10:49:58;9.00;99.90
21592;DHT22;10958;50.892;3.992;2023-02-01T10:52:36;9.10;99.90
21592;DHT22;10958;50.892;3.992;2023-02-01T10:55:31;9.20;99.90
21592;DHT22;10958;50.892;3.992;2023-02-01T10:58:25;9.30;99.90
21592;DHT22;10958;50.892;3.992;2023-02-01T11:04:03;9.40;99.90
21592;DHT22;10958;50.892;3.992;2023-02-01T11:09:35;9.60;99.90
21592;DHT22;10958;50.892;3.992;2023-02-01T11:12:44;9.70;99.90
21592;DHT22;10958;50.892;3.992;2023-02-01T11:15:42;9.80;99.90
21592;DHT22;10958;50.892;3.992;2023-02-01T11:18:39;9.90;99.90
21592;DHT22;10958;50.892;3.992;2023-02-01T11:21:06;9.90;99.90
21592;DHT22;10958;50.892;3.992;2023-02-01T11:23:42;9.60;99.90
21592;DHT22;10958;50.892;3.992;2023-02-01T11:26:28;9.70;99.90
21592;DHT22;10958;50.892;3.992;2023-02-01T11:29:22;9.60;99.90
21592;DHT22;10958;50.892;3.992;2023-02-01T11:35:03;9.70;99.90
21592;DHT22;10958;50.892;3.992;2023-02-01T11:37:41;9.80;99.90
21592;DHT22;10958;50.892;3.992;2023-02-01T11:40:35;9.50;99.90
21592;DHT22;10958;50.892;3.992;2023-02-01T11:43:14;9.50;99.90
21592;DHT22;10958;50.892;3.992;2023-02-01T11:45:41;9.40;99.90
21592;DHT22;10958;50.892;3.992;2023-02-01T11:48:18;9.30;99.90
21592;DHT22;10958;50.892;3.992;2023-02-01T11:59:39;9.60;99.90
21592;DHT22;10958;50.892;3.992;2023-02-01T12:05:33;9.60;99.90
21592;DHT22;10958;50.892;3.992;2023-02-01T12:21:57;10.10;99.90
21592;DHT22;10958;50.892;3.992;2023-02-01T12:33:32;10.50;99.90
21592;DHT22;10958;50.892;3.992;2023-02-01T12:39:02;10.80;99.90
21592;DHT22;10958;50.892;3.992;2023-02-01T12:44:27;10.90;99.90
21592;DHT22;10958;50.892;3.992;2023-02-01T12:47:04;10.90;99.90
21592;DHT22;10958;50.892;3.992;2023-02-01T12:52:04;10.60;99.90
21592;DHT22;10958;50.892;3.992;2023-02-01T12:55:22;10.60;99.90
21592;DHT22;10958;50.892;3.992;2023-02-01T12:57:32;10.60;99.90
21592;DHT22;10958;50.892;3.992;2023-02-01T13:02:55;10.50;99.90
21592;DHT22;10958;50.892;3.992;2023-02-01T13:05:42;10.40;99.90
21592;DHT22;10958;50.892;3.992;2023-02-01T13:08:13;10.50;99.90
21592;DHT22;10958;50.892;3.992;2023-02-01T13:10:43;10.40;99.90
21592;DHT22;10958;50.892;3.992;2023-02-01T13:16:21;10.40;99.90
21592;DHT22;10958;50.892;3.992;2023-02-01T13:18:56;10.40;99.90
21592;DHT22;10958;50.892;3.992;2023-02-01T13:21:33;10.40;99.90
21592;DHT22;10958;50.892;3.992;2023-02-01T13:24:00;10.30;99.90
21592;DHT22;10958;50.892;3.992;2023-02-01T13:26:27;10.40;99.90
21592;DHT22;10958;50.892;3.992;2023-02-01T13:29:02;10.40;99.90
21592;DHT22;10958;50.892;3.992;2023-02-01T13:42:55;10.40;99.90
21592;DHT22;10958;50.892;3.992;2023-02-01T13:45:25;10.50;99.90
21592;DHT22;10958;50.892;3.992;2023-02-01T13:47:56;10.30;99.90
21592;DHT22;10958;50.892;3.992;2023-02-01T13:50:37;10.30;99.90
21592;DHT22;10958;50.892;3.992;2023-02-01T13:55:43;10.60;99.90
21592;DHT22;10958;50.892;3.992;2023-02-01T13:58:13;10.60;99.90
21592;DHT22;10958;50.892;3.992;2023-02-01T14:00:41;10.60;99.90
21592;DHT22;10958;50.892;3.992;2023-02-01T14:03:21;10.80;99.90
21592;DHT22;10958;50.892;3.992;2023-02-01T14:08:20;10.60;99.90
21592;DHT22;10958;50.892;3.992;2023-02-01T14:10:57;10.50;99.90
21592;DHT22;10958;50.892;3.992;2023-02-01T14:13:38;10.70;99.90
21592;DHT22;10958;50.892;3.992;2023-02-01T14:23:43;10.60;99.90
21592;DHT22;10958;50.892;3.992;2023-02-01T14:26:13;10.70;99.90
21592;DHT22;10958;50.892;3.992;2023-02-01T14:28:44;10.70;99.90
21592;DHT22;10958;50.892;3.992;2023-02-01T14:31:37;10.60;99.90
21592;DHT22;10958;50.892;3.992;2023-02-01T14:34:13;10.50;99.90
21592;DHT22;10958;50.892;3.992;2023-02-01T14:36:47;10.40;99.90
21592;DHT22;10958;50.892;3.992;2023-02-01T14:39:28;10.30;99.90
21592;DHT22;10958;50.892;3.992;2023-02-01T14:42:02;10.20;99.90
21592;DHT22;10958;50.892;3.992;2023-02-01T14:44:34;10.10;99.90
21592;DHT22;10958;50.892;3.992;2023-02-01T14:49:56;9.90;99.90
21592;DHT22;10958;50.892;3.992;2023-02-01T14:52:34;9.80;99.90
21592;DHT22;10958;50.892;3.992;2023-02-01T14:55:06;9.70;99.90
21592;DHT22;10958;50.892;3.992;2023-02-01T14:57:39;9.60;99.90
21592;DHT22;10958;50.892;3.992;2023-02-01T15:02:46;9.60;99.90
21592;DHT22;10958;50.892;3.992;2023-02-01T15:05:27;9.60;99.90
21592;DHT22;10958;50.892;3.992;2023-02-01T15:07:58;9.50;99.90
21592;DHT22;10958;50.892;3.992;2023-02-01T15:10:26;9.50;99.90
21592;DHT22;10958;50.892;3.992;2023-02-01T15:12:53;9.60;99.90
21592;DHT22;10958;50.892;3.992;2023-02-01T15:15:24;9.50;99.90
21592;DHT22;10958;50.892;3.992;2023-02-01T15:17:55;9.60;99.90
21592;DHT22;10958;50.892;3.992;2023-02-01T15:20:26;9.60;99.90
21592;DHT22;10958;50.892;3.992;2023-02-01T15:23:03;9.60;99.90
21592;DHT22;10958;50.892;3.992;2023-02-01T15:25:34;9.50;99.90
21592;DHT22;10958;50.892;3.992;2023-02-01T15:28:04;9.40;99.90
21592;DHT22;10958;50.892;3.992;2023-02-01T15:30:34;9.40;99.90
21592;DHT22;10958;50.892;3.992;2023-02-01T15:33:20;9.40;99.90
21592;DHT22;10958;50.892;3.992;2023-02-01T15:41:20;9.30;99.90
21592;DHT22;10958;50.892;3.992;2023-02-01T15:44:02;9.20;99.90
21592;DHT22;10958;50.892;3.992;2023-02-01T15:46:41;9.20;99.90
21592;DHT22;10958;50.892;3.992;2023-02-01T15:49:31;9.30;99.90
21592;DHT22;10958;50.892;3.992;2023-02-01T15:52:08;9.20;99.90
21592;DHT22;10958;50.892;3.992;2023-02-01T15:54:52;9.20;99.90
21592;DHT22;10958;50.892;3.992;2023-02-01T15:57:38;9.20;99.90
21592;DHT22;10958;50.892;3.992;2023-02-01T16:00:29;9.20;99.90
21592;DHT22;10958;50.892;3.992;2023-02-01T16:03:15;9.20;99.90
21592;DHT22;10958;50.892;3.992;2023-02-01T16:06:00;9.20;99.90
21592;DHT22;10958;50.892;3.992;2023-02-01T16:08:33;9.20;99.90
21592;DHT22;10958;50.892;3.992;2023-02-01T16:13:37;9.40;99.90
21592;DHT22;10958;50.892;3.992;2023-02-01T16:16:03;9.40;99.90
21592;DHT22;10958;50.892;3.992;2023-02-01T16:18:44;9.40;99.90
21592;DHT22;10958;50.892;3.992;2023-02-01T16:21:12;9.20;99.90
21592;DHT22;10958;50.892;3.992;2023-02-01T16:24:15;9.10;99.90
21592;DHT22;10958;50.892;3.992;2023-02-01T16:26:47;9.10;99.90
21592;DHT22;10958;50.892;3.992;2023-02-01T16:29:50;9.00;99.90
21592;DHT22;10958;50.892;3.992;2023-02-01T16:32:20;9.10;99.90
21592;DHT22;10958;50.892;3.992;2023-02-01T16:34:47;9.00;99.90
21592;DHT22;10958;50.892;3.992;2023-02-01T16:37:21;9.00;99.90
21592;DHT22;10958;50.892;3.992;2023-02-01T16:39:47;9.00;99.90
21592;DHT22;10958;50.892;3.992;2023-02-01T16:42:13;9.00;99.90
21592;DHT22;10958;50.892;3.992;2023-02-01T16:44:40;9.10;99.90
21592;DHT22;10958;50.892;3.992;2023-02-01T16:47:16;9.00;99.90
21592;DHT22;10958;50.892;3.992;2023-02-01T16:49:43;9.00;99.90
21592;DHT22;10958;50.892;3.992;2023-02-01T16:52:21;9.10;99.90
21592;DHT22;10958;50.892;3.992;2023-02-01T16:54:48;9.00;99.90
21592;DHT22;10958;50.892;3.992;2023-02-01T16:57:16;8.90;99.90
21592;DHT22;10958;50.892;3.992;2023-02-01T16:59:45;9.00;99.90
21592;DHT22;10958;50.892;3.992;2023-02-01T17:02:17;9.10;99.90
21592;DHT22;10958;50.892;3.992;2023-02-01T17:04:44;9.10;99.90
21592;DHT22;10958;50.892;3.992;2023-02-01T17:07:19;9.00;99.90
21592;DHT22;10958;50.892;3.992;2023-02-01T17:09:48;8.90;99.90
21592;DHT22;10958;50.892;3.992;2023-02-01T17:12:26;8.90;99.90
21592;DHT22;10958;50.892;3.992;2023-02-01T17:14:53;9.00;99.90
21592;DHT22;10958;50.892;3.992;2023-02-01T17:17:20;9.00;99.90
21592;DHT22;10958;50.892;3.992;2023-02-01T17:19:49;9.10;99.90
21592;DHT22;10958;50.892;3.992;2023-02-01T17:22:22;9.00;99.90
21592;DHT22;10958;50.892;3.992;2023-02-01T17:24:48;9.10;99.90
21592;DHT22;10958;50.892;3.992;2023-02-01T17:27:17;9.00;99.90
21592;DHT22;10958;50.892;3.992;2023-02-01T17:29:43;9.10;99.90
21592;DHT22;10958;50.892;3.992;2023-02-01T17:32:20;9.00;99.90
21592;DHT22;10958;50.892;3.992;2023-02-01T17:34:46;9.00;99.90
21592;DHT22;10958;50.892;3.992;2023-02-01T17:37:31;9.00;99.90
21592;DHT22;10958;50.892;3.992;2023-02-01T17:39:59;9.00;99.90
21592;DHT22;10958;50.892;3.992;2023-02-01T17:42:29;9.00;99.90
21592;DHT22;10958;50.892;3.992;2023-02-01T17:47:55;9.00;99.90
21592;DHT22;10958;50.892;3.992;2023-02-01T17:50:22;9.00;99.90
21592;DHT22;10958;50.892;3.992;2023-02-01T17:52:51;9.10;99.90
21592;DHT22;10958;50.892;3.992;2023-02-01T17:55:19;9.20;99.90
21592;DHT22;10958;50.892;3.992;2023-02-01T17:57:46;9.00;99.90
21592;DHT22;10958;50.892;3.992;2023-02-01T18:00:15;9.00;99.90
21592;DHT22;10958;50.892;3.992;2023-02-01T18:02:44;9.00;99.90
21592;DHT22;10958;50.892;3.992;2023-02-01T18:05:17;9.00;99.90
21592;DHT22;10958;50.892;3.992;2023-02-01T18:07:44;9.00;99.90
21592;DHT22;10958;50.892;3.992;2023-02-01T18:10:12;9.00;99.90
21592;DHT22;10958;50.892;3.992;2023-02-01T18:12:38;9.00;99.90
21592;DHT22;10958;50.892;3.992;2023-02-01T18:15:21;9.10;99.90
21592;DHT22;10958;50.892;3.992;2023-02-01T18:17:50;9.10;99.90
21592;DHT22;10958;50.892;3.992;2023-02-01T18:20:21;9.10;99.90
21592;DHT22;10958;50.892;3.992;2023-02-01T18:22:49;9.00;99.90
21592;DHT22;10958;50.892;3.992;2023-02-01T18:25:27;9.00;99.90
21592;DHT22;10958;50.892;3.992;2023-02-01T18:27:54;9.20;99.90
21592;DHT22;10958;50.892;3.992;2023-02-01T18:30:24;9.10;99.90
21592;DHT22;10958;50.892;3.992;2023-02-01T18:32:52;9.00;99.90
21592;DHT22;10958;50.892;3.992;2023-02-01T18:35:23;9.00;99.90
21592;DHT22;10958;50.892;3.992;2023-02-01T18:37:50;9.00;99.90
21592;DHT22;10958;50.892;3.992;2023-02-01T18:40:22;9.00;99.90
21592;DHT22;10958;50.892;3.992;2023-02-01T18:42:48;8.90;99.90
21592;DHT22;10958;50.892;3.992;2023-02-01T18:45:32;8.80;99.90
21592;DHT22;10958;50.892;3.992;2023-02-01T18:47:59;8.80;99.90
21592;DHT22;10958;50.892;3.992;2023-02-01T18:50:27;9.00;99.90
21592;DHT22;10958;50.892;3.992;2023-02-01T18:52:55;9.00;99.90
21592;DHT22;10958;50.892;3.992;2023-02-01T18:55:22;9.00;99.90
21592;DHT22;10958;50.892;3.992;2023-02-01T18:57:50;9.00;99.90